Time;durP1;ratioP1;P1;durP2;ratioP2;P2;SDS_P1;SDS_P2;PMS_P1;PMS_P2;Temp;Humidity;BMP_temperature;BMP_pressure;BME280_temperature;BME280_humidity;BME280_pressure;Samples;Min_cycle;Max_cycle;Signal;HPM_P1;HPM_P2
2022/01/19 00:01:04;;;;;;;38.92;16.10;;;;;;;;;;5075574;28;20052;-50
2022/01/19 00:03:30;;;;;;;37.47;14.93;;;;;;;;;;5075580;28;20037;-50
2022/01/19 00:05:57;;;;;;;36.15;15.43;;;;;;;;;;5075687;28;20083;-51
2022/01/19 00:08:25;;;;;;;36.42;14.95;;;;;;;;;;5075517;28;20028;-51
2022/01/19 00:10:51;;;;;;;39.50;17.27;;;;;;;;;;5075339;28;20024;-50
2022/01/19 00:13:18;;;;;;;41.33;13.60;;;;;;;;;;5075437;28;20062;-51
2022/01/19 00:15:44;;;;;;;29.92;11.52;;;;;;;;;;5075559;28;20365;-50
2022/01/19 00:18:10;;;;;;;41.75;14.95;;;;;;;;;;5075154;28;20025;-51
2022/01/19 00:20:37;;;;;;;44.88;17.40;;;;;;;;;;5075338;28;20027;-50
2022/01/19 00:23:05;;;;;;;37.47;12.50;;;;;;;;;;5075094;28;20031;-50
2022/01/19 00:25:31;;;;;;;30.92;11.68;;;;;;;;;;5075249;28;20386;-50
2022/01/19 00:27:57;;;;;;;41.17;16.25;;;;;;;;;;5074724;28;20554;-50
2022/01/19 00:30:24;;;;;;;33.53;13.10;;;;;;;;;;5075107;28;20032;-50
2022/01/19 00:32:52;;;;;;;35.55;12.70;;;;;;;;;;5075072;28;20146;-50
2022/01/19 00:35:18;;;;;;;36.88;16.63;;;;;;;;;;5075224;28;20029;-51
2022/01/19 00:37:44;;;;;;;26.58;10.70;;;;;;;;;;5074912;28;20024;-50
2022/01/19 00:40:14;;;;;;;32.22;12.35;;;;;;;;;;5074848;28;20025;-50
2022/01/19 00:42:40;;;;;;;27.55;8.80;;;;;;;;;;5074655;28;20021;-51
2022/01/19 00:45:09;;;;;;;32.47;13.15;;;;;;;;;;5074531;28;20028;-50
2022/01/19 00:47:35;;;;;;;25.67;11.57;;;;;;;;;;5074667;28;20494;-50
2022/01/19 00:50:01;;;;;;;42.97;14.40;;;;;;;;;;5074655;28;20497;-51
2022/01/19 00:52:27;;;;;;;35.72;13.60;;;;;;;;;;5074711;28;20438;-51
2022/01/19 00:54:54;;;;;;;32.95;12.23;;;;;;;;;;5073145;28;20398;-51
2022/01/19 00:57:20;;;;;;;37.92;14.65;;;;;;;;;;5074238;28;20481;-51
2022/01/19 00:59:46;;;;;;;26.33;11.35;;;;;;;;;;5074380;28;20470;-51
2022/01/19 01:02:12;;;;;;;36.72;15.02;;;;;;;;;;5074283;28;20028;-50
2022/01/19 01:04:38;;;;;;;32.85;11.85;;;;;;;;;;5074213;28;20036;-50
2022/01/19 01:07:11;;;;;;;28.38;12.73;;;;;;;;;;5074317;28;20028;-50
2022/01/19 01:09:38;;;;;;;31.38;12.07;;;;;;;;;;5074299;28;20020;-50
2022/01/19 01:12:13;;;;;;;39.72;15.32;;;;;;;;;;5074084;28;20603;-51
2022/01/19 01:20:13;;;;;;;35.95;11.10;;;;;;;;;;5074508;28;20497;-51
2022/01/19 01:22:42;;;;;;;35.10;13.45;;;;;;;;;;5073998;28;20486;-52
2022/01/19 01:25:16;;;;;;;30.45;10.27;;;;;;;;;;5072425;28;20043;-51
2022/01/19 01:27:42;;;;;;;30.20;11.98;;;;;;;;;;5073932;28;20035;-50
2022/01/19 01:30:08;;;;;;;28.65;9.38;;;;;;;;;;5073998;28;20031;-51
2022/01/19 01:32:34;;;;;;;36.33;11.07;;;;;;;;;;5074002;28;20095;-52
2022/01/19 01:35:01;;;;;;;34.05;10.48;;;;;;;;;;5073697;28;20028;-50
2022/01/19 01:37:27;;;;;;;34.80;11.13;;;;;;;;;;5073731;28;20058;-50
2022/01/19 01:39:53;;;;;;;26.17;9.52;;;;;;;;;;5073611;28;20025;-49
2022/01/19 01:42:20;;;;;;;28.48;10.18;;;;;;;;;;5073815;28;20066;-51
2022/01/19 01:44:51;;;;;;;26.73;9.43;;;;;;;;;;5073611;28;20094;-51
2022/01/19 01:47:19;;;;;;;26.75;9.77;;;;;;;;;;5073572;28;20478;-50
2022/01/19 01:55:04;;;;;;;31.05;10.95;;;;;;;;;;5073624;28;20543;-50
2022/01/19 01:57:31;;;;;;;33.35;13.68;;;;;;;;;;5073351;28;20033;-50
2022/01/19 01:59:59;;;;;;;32.88;10.60;;;;;;;;;;5073657;28;20043;-50
2022/01/19 02:02:25;;;;;;;36.80;13.35;;;;;;;;;;5073327;28;20027;-50
2022/01/19 02:04:51;;;;;;;31.67;12.75;;;;;;;;;;5073264;28;20062;-51
2022/01/19 02:09:59;;;;;;;36.03;11.73;;;;;;;;;;5073304;28;20021;-50
2022/01/19 02:23:39;;;;;;;31.92;11.05;;;;;;;;;;5073366;28;20043;-50
2022/01/19 02:26:14;;;;;;;36.22;12.82;;;;;;;;;;5072836;28;20078;-50
2022/01/19 02:31:50;;;;;;;29.17;12.50;;;;;;;;;;5073357;28;20463;-51
2022/01/19 02:42:30;;;;;;;38.78;16.65;;;;;;;;;;5073241;28;20087;-50
2022/01/19 02:49:50;;;;;;;52.50;17.92;;;;;;;;;;5072860;28;20028;-50
2022/01/19 02:52:17;;;;;;;47.75;18.30;;;;;;;;;;5073054;28;20070;-51
2022/01/19 02:54:44;;;;;;;47.00;17.52;;;;;;;;;;5072989;28;20025;-50
2022/01/19 02:57:12;;;;;;;40.97;15.70;;;;;;;;;;5072773;28;20031;-50
2022/01/19 03:10:42;;;;;;;27.55;10.45;;;;;;;;;;5054476;28;20036;-51
2022/01/19 03:13:08;;;;;;;29.80;11.57;;;;;;;;;;5054420;28;20485;-51
2022/01/19 03:15:34;;;;;;;34.08;12.65;;;;;;;;;;5054415;28;20056;-52
2022/01/19 03:18:01;;;;;;;27.70;10.70;;;;;;;;;;5054350;28;20032;-51
2022/01/19 03:20:28;;;;;;;29.27;12.02;;;;;;;;;;5054134;28;20029;-51
2022/01/19 03:23:12;;;;;;;31.02;12.65;;;;;;;;;;5054106;28;20451;-51
2022/01/19 03:25:39;;;;;;;38.03;13.65;;;;;;;;;;5054127;28;20517;-50
2022/01/19 03:28:06;;;;;;;35.90;14.68;;;;;;;;;;5053785;28;20509;-50
2022/01/19 03:30:34;;;;;;;40.05;16.33;;;;;;;;;;5054186;28;20083;-52
2022/01/19 03:33:01;;;;;;;47.35;20.02;;;;;;;;;;5054080;28;20025;-51
2022/01/19 03:35:27;;;;;;;42.05;18.75;;;;;;;;;;5053955;28;20041;-51
2022/01/19 03:37:53;;;;;;;39.15;15.60;;;;;;;;;;5053944;28;20057;-51
2022/01/19 03:40:19;;;;;;;38.60;14.95;;;;;;;;;;5053844;28;20032;-51
2022/01/19 03:42:45;;;;;;;37.28;16.10;;;;;;;;;;5072306;28;20056;-51
2022/01/19 03:45:11;;;;;;;35.25;13.48;;;;;;;;;;5075942;28;20060;-51
2022/01/19 03:48:12;;;;;;;33.80;12.70;;;;;;;;;;5076163;28;20029;-51
2022/01/19 03:50:27;;;;;;;30.35;11.68;;;;;;;;;;5075596;28;20421;-51
2022/01/19 03:52:53;;;;;;;28.88;11.25;;;;;;;;;;5075716;28;20078;-51
2022/01/19 03:55:19;;;;;;;31.77;11.85;;;;;;;;;;5075921;28;20386;-52
2022/01/19 03:57:45;;;;;;;39.85;16.48;;;;;;;;;;5075637;28;20029;-51
2022/01/19 04:00:12;;;;;;;52.28;18.67;;;;;;;;;;5075698;28;20078;-51
2022/01/19 04:02:38;;;;;;;50.70;16.80;;;;;;;;;;5075552;28;20058;-50
2022/01/19 04:05:11;;;;;;;47.33;15.60;;;;;;;;;;5075495;28;20119;-51
2022/01/19 04:07:37;;;;;;;36.90;13.70;;;;;;;;;;5075512;28;20039;-50
2022/01/19 04:10:04;;;;;;;39.35;14.52;;;;;;;;;;5074113;28;20037;-51
2022/01/19 04:15:13;;;;;;;39.95;15.32;;;;;;;;;;5075333;28;20356;-51
2022/01/19 04:17:46;;;;;;;40.63;16.30;;;;;;;;;;5074920;28;20480;-51
2022/01/19 04:20:12;;;;;;;42.10;14.80;;;;;;;;;;5075175;28;20024;-50
2022/01/19 04:22:38;;;;;;;42.35;15.18;;;;;;;;;;5075395;28;20371;-51
2022/01/19 04:25:05;;;;;;;40.85;16.08;;;;;;;;;;5075158;28;20120;-51
2022/01/19 04:27:32;;;;;;;54.25;20.88;;;;;;;;;;5074799;28;20024;-52
2022/01/19 04:32:37;;;;;;;43.35;18.73;;;;;;;;;;5074923;28;20027;-51
2022/01/19 04:35:07;;;;;;;44.72;17.83;;;;;;;;;;5074798;28;20498;-51
2022/01/19 05:07:26;;;;;;;129.88;49.78;;;;;;;;;;5052149;28;20021;-50
2022/01/19 05:10:01;;;;;;;184.63;71.63;;;;;;;;;;5052136;28;20037;-51
2022/01/19 05:15:13;;;;;;;149.55;58.03;;;;;;;;;;5052492;28;20043;-50
2022/01/19 05:17:39;;;;;;;111.65;46.13;;;;;;;;;;5069722;28;20104;-52
2022/01/19 05:20:12;;;;;;;81.35;35.13;;;;;;;;;;5074052;28;20033;-51
2022/01/19 05:22:38;;;;;;;52.30;20.77;;;;;;;;;;5074288;28;20035;-52
2022/01/19 05:25:08;;;;;;;50.35;16.92;;;;;;;;;;5073876;28;20478;-51
2022/01/19 05:27:34;;;;;;;43.47;17.25;;;;;;;;;;5073321;28;20462;-51
2022/01/19 05:30:00;;;;;;;60.97;21.38;;;;;;;;;;5073820;28;20044;-51
2022/01/19 05:32:26;;;;;;;50.30;20.88;;;;;;;;;;5074070;28;20044;-51
2022/01/19 05:34:52;;;;;;;39.72;15.55;;;;;;;;;;5073821;28;20020;-51
2022/01/19 05:37:18;;;;;;;40.50;14.75;;;;;;;;;;5073682;28;20017;-51
2022/01/19 05:39:44;;;;;;;45.25;18.40;;;;;;;;;;5072385;28;20433;-50
2022/01/19 05:42:14;;;;;;;56.40;25.75;;;;;;;;;;5073829;28;20024;-50
2022/01/19 05:44:43;;;;;;;67.45;30.33;;;;;;;;;;5073431;28;20029;-51
2022/01/19 05:47:09;;;;;;;61.78;30.10;;;;;;;;;;5073695;28;20028;-51
2022/01/19 05:49:35;;;;;;;63.72;27.95;;;;;;;;;;5073753;28;20035;-51
2022/01/19 05:52:01;;;;;;;72.82;27.42;;;;;;;;;;5073484;28;20051;-51
2022/01/19 05:54:27;;;;;;;131.27;46.58;;;;;;;;;;5073768;28;20099;-51
2022/01/19 05:56:54;;;;;;;113.50;42.80;;;;;;;;;;5073513;28;20107;-51
2022/01/19 05:59:22;;;;;;;118.00;40.95;;;;;;;;;;5073497;28;20025;-51
2022/01/19 06:01:48;;;;;;;110.82;38.28;;;;;;;;;;5073574;28;20028;-50
2022/01/19 06:04:14;;;;;;;123.13;37.22;;;;;;;;;;5073318;28;20028;-49
2022/01/19 06:06:45;;;;;;;114.57;40.03;;;;;;;;;;5073186;28;20025;-50
2022/01/19 06:09:32;;;;;;;114.97;42.40;;;;;;;;;;5073289;28;20073;-52
2022/01/19 06:11:57;;;;;;;112.00;44.10;;;;;;;;;;5073128;28;20028;-50
2022/01/19 06:14:23;;;;;;;105.07;38.53;;;;;;;;;;5073242;28;20054;-50
2022/01/19 06:16:49;;;;;;;98.53;37.78;;;;;;;;;;5073197;28;20432;-51
2022/01/19 06:19:19;;;;;;;79.43;33.08;;;;;;;;;;5073316;28;20035;-52
2022/01/19 06:21:45;;;;;;;79.90;34.85;;;;;;;;;;5073234;28;20032;-51
2022/01/19 06:24:11;;;;;;;76.20;31.88;;;;;;;;;;5073036;28;20082;-50
2022/01/19 06:26:38;;;;;;;79.68;34.20;;;;;;;;;;5073449;28;20099;-51
2022/01/19 06:29:05;;;;;;;82.88;36.47;;;;;;;;;;5072992;28;20051;-52
2022/01/19 06:31:31;;;;;;;131.30;56.08;;;;;;;;;;5073544;28;20043;-56
2022/01/19 06:33:57;;;;;;;99.78;44.22;;;;;;;;;;5073192;28;20390;-57
2022/01/19 06:36:23;;;;;;;102.78;44.05;;;;;;;;;;5073025;28;20075;-57
2022/01/19 06:38:49;;;;;;;106.53;44.58;;;;;;;;;;5073165;28;20116;-58
2022/01/19 06:41:16;;;;;;;95.45;40.70;;;;;;;;;;5076702;28;20028;-56
2022/01/19 06:43:42;;;;;;;80.00;35.67;;;;;;;;;;5077110;28;20474;-57
2022/01/19 06:46:10;;;;;;;101.10;42.22;;;;;;;;;;5077222;28;20056;-58
2022/01/19 06:48:39;;;;;;;109.45;45.92;;;;;;;;;;5076796;28;20410;-56
2022/01/19 06:51:05;;;;;;;159.32;62.88;;;;;;;;;;5076725;28;20029;-57
2022/01/19 06:53:31;;;;;;;168.38;65.78;;;;;;;;;;5076740;28;20020;-56
2022/01/19 06:55:57;;;;;;;186.73;74.40;;;;;;;;;;5076921;28;20035;-56
2022/01/19 06:58:30;;;;;;;147.82;62.28;;;;;;;;;;5076798;28;20036;-55
2022/01/19 07:00:57;;;;;;;152.30;62.33;;;;;;;;;;5076728;28;20050;-55
2022/01/19 07:03:24;;;;;;;158.95;65.30;;;;;;;;;;5076551;28;20048;-56
2022/01/19 07:05:50;;;;;;;190.68;78.15;;;;;;;;;;5076470;28;20068;-55
2022/01/19 07:08:17;;;;;;;174.30;70.90;;;;;;;;;;5076420;28;20067;-56
2022/01/19 07:10:43;;;;;;;249.75;103.47;;;;;;;;;;5076358;28;20382;-56
2022/01/19 07:13:09;;;;;;;160.13;70.70;;;;;;;;;;5076448;28;20047;-57
2022/01/19 07:15:36;;;;;;;133.27;60.38;;;;;;;;;;5076431;28;20056;-56
2022/01/19 07:18:03;;;;;;;118.07;55.67;;;;;;;;;;5076228;28;20032;-57
2022/01/19 07:20:30;;;;;;;120.13;54.10;;;;;;;;;;5076331;28;20024;-56
2022/01/19 07:22:57;;;;;;;178.23;76.78;;;;;;;;;;5076153;28;20059;-56
2022/01/19 07:25:23;;;;;;;188.15;81.72;;;;;;;;;;5076147;28;20040;-55
2022/01/19 07:27:49;;;;;;;361.02;121.07;;;;;;;;;;5076052;28;20051;-56
2022/01/19 07:30:15;;;;;;;279.30;110.82;;;;;;;;;;5076076;28;20482;-55
2022/01/19 07:32:42;;;;;;;233.48;100.38;;;;;;;;;;5076031;28;20474;-57
2022/01/19 07:35:09;;;;;;;221.05;99.30;;;;;;;;;;5076176;28;20029;-56
2022/01/19 07:37:35;;;;;;;192.88;86.88;;;;;;;;;;5076143;28;20068;-55
2022/01/19 07:40:01;;;;;;;183.20;85.72;;;;;;;;;;5074834;28;20021;-56
2022/01/19 07:42:27;;;;;;;212.55;96.50;;;;;;;;;;5075840;28;20055;-55
2022/01/19 07:44:54;;;;;;;237.68;107.45;;;;;;;;;;5075767;28;20029;-56
2022/01/19 07:47:21;;;;;;;271.95;129.27;;;;;;;;;;5075600;28;20027;-55
2022/01/19 07:49:47;;;;;;;210.90;105.18;;;;;;;;;;5075958;28;20067;-56
2022/01/19 07:52:13;;;;;;;155.57;75.93;;;;;;;;;;5075102;28;20021;-55
2022/01/19 07:54:39;;;;;;;133.48;62.85;;;;;;;;;;5075902;28;20450;-55
2022/01/19 07:57:05;;;;;;;118.28;57.78;;;;;;;;;;5075910;28;20043;-56
2022/01/19 07:59:32;;;;;;;111.78;56.35;;;;;;;;;;5075456;28;20028;-54
2022/01/19 08:01:58;;;;;;;125.50;65.18;;;;;;;;;;5075820;28;20025;-57
2022/01/19 08:04:25;;;;;;;113.40;56.05;;;;;;;;;;5075642;28;20555;-55
2022/01/19 08:06:54;;;;;;;133.82;68.90;;;;;;;;;;5075436;28;20024;-55
2022/01/19 08:09:23;;;;;;;150.10;77.18;;;;;;;;;;5075297;28;20029;-57
2022/01/19 08:11:49;;;;;;;125.25;66.75;;;;;;;;;;5075857;28;20547;-55
2022/01/19 08:14:16;;;;;;;114.65;57.85;;;;;;;;;;5075337;28;20033;-57
2022/01/19 08:16:42;;;;;;;127.38;65.85;;;;;;;;;;5075102;28;20455;-57
2022/01/19 08:19:08;;;;;;;109.90;58.78;;;;;;;;;;5075204;28;20028;-57
2022/01/19 08:21:34;;;;;;;84.55;45.75;;;;;;;;;;5075400;28;20036;-57
2022/01/19 08:24:00;;;;;;;91.75;45.75;;;;;;;;;;5075390;28;20442;-56
2022/01/19 08:26:26;;;;;;;85.25;44.22;;;;;;;;;;5075147;28;20116;-46
2022/01/19 08:28:55;;;;;;;122.05;62.47;;;;;;;;;;5074795;28;20067;-55
2022/01/19 08:31:21;;;;;;;95.30;49.33;;;;;;;;;;5075129;28;20036;-55
2022/01/19 08:33:49;;;;;;;100.82;54.90;;;;;;;;;;5075003;28;20021;-55
2022/01/19 08:36:16;;;;;;;104.40;57.63;;;;;;;;;;5075024;28;20035;-56
2022/01/19 08:38:42;;;;;;;81.70;45.22;;;;;;;;;;5075022;28;20016;-55
2022/01/19 08:41:09;;;;;;;75.68;39.72;;;;;;;;;;5074775;28;20028;-58
2022/01/19 08:43:35;;;;;;;63.35;31.55;;;;;;;;;;5074800;28;20710;-45
2022/01/19 08:46:02;;;;;;;74.45;37.90;;;;;;;;;;5074681;28;20090;-44
2022/01/19 08:48:28;;;;;;;69.28;34.10;;;;;;;;;;5074499;28;20024;-53
2022/01/19 08:50:55;;;;;;;85.97;40.50;;;;;;;;;;5074534;28;20047;-58
2022/01/19 08:53:22;;;;;;;108.35;56.17;;;;;;;;;;5074589;28;20040;-51
2022/01/19 08:55:48;;;;;;;105.72;55.78;;;;;;;;;;5074527;28;20028;-51
2022/01/19 08:58:15;;;;;;;92.55;52.00;;;;;;;;;;5074646;28;20056;-51
2022/01/19 09:00:41;;;;;;;76.25;36.83;;;;;;;;;;5074281;28;20044;-52
2022/01/19 09:03:10;;;;;;;62.08;30.58;;;;;;;;;;5074328;28;20024;-52
2022/01/19 09:05:36;;;;;;;54.65;28.45;;;;;;;;;;5074190;28;20037;-53
2022/01/19 09:08:03;;;;;;;77.68;36.53;;;;;;;;;;5074429;28;20021;-52
2022/01/19 09:10:29;;;;;;;69.13;32.70;;;;;;;;;;5074335;28;20024;-52
2022/01/19 09:12:55;;;;;;;87.25;40.28;;;;;;;;;;5074091;28;20029;-51
2022/01/19 09:15:22;;;;;;;60.75;33.15;;;;;;;;;;5074028;28;20425;-53
2022/01/19 09:17:49;;;;;;;49.58;25.38;;;;;;;;;;5073925;28;20115;-52
2022/01/19 09:20:16;;;;;;;46.63;21.35;;;;;;;;;;5074083;28;20019;-52
2022/01/19 09:22:43;;;;;;;45.17;24.95;;;;;;;;;;5073959;28;20028;-51
2022/01/19 09:25:10;;;;;;;75.53;33.00;;;;;;;;;;5073871;28;20071;-51
2022/01/19 09:27:38;;;;;;;58.80;26.80;;;;;;;;;;5073742;28;20028;-52
2022/01/19 09:30:05;;;;;;;81.25;38.75;;;;;;;;;;5073867;28;20044;-56
2022/01/19 09:32:31;;;;;;;40.53;16.45;;;;;;;;;;5073653;28;20024;-53
2022/01/19 09:35:06;;;;;;;51.75;26.38;;;;;;;;;;5073904;28;20032;-50
2022/01/19 09:37:33;;;;;;;36.10;17.92;;;;;;;;;;5073669;28;20103;-52
2022/01/19 09:39:59;;;;;;;32.42;12.88;;;;;;;;;;5073806;28;20474;-54
2022/01/19 09:42:25;;;;;;;37.33;11.55;;;;;;;;;;5073682;28;20032;-55
2022/01/19 09:44:52;;;;;;;27.73;11.20;;;;;;;;;;5073520;28;20540;-53
2022/01/19 09:47:18;;;;;;;33.42;12.02;;;;;;;;;;5073693;28;20141;-54
2022/01/19 09:49:45;;;;;;;97.88;36.10;;;;;;;;;;5073629;28;20052;-54
2022/01/19 09:52:11;;;;;;;38.80;13.52;;;;;;;;;;5073492;28;20025;-54
2022/01/19 09:54:37;;;;;;;50.05;15.18;;;;;;;;;;5073454;28;20024;-55
2022/01/19 09:57:04;;;;;;;33.40;11.32;;;;;;;;;;5073837;28;20077;-55
2022/01/19 09:59:30;;;;;;;45.88;13.70;;;;;;;;;;5073703;28;20468;-56
2022/01/19 10:01:59;;;;;;;27.98;9.48;;;;;;;;;;5073388;28;20071;-56
2022/01/19 10:04:27;;;;;;;32.50;9.65;;;;;;;;;;5073249;28;20155;-55
2022/01/19 10:07:14;;;;;;;35.95;10.98;;;;;;;;;;5073465;28;20108;-56
2022/01/19 10:09:59;;;;;;;32.28;10.23;;;;;;;;;;5069287;28;20033;-54
2022/01/19 10:18:06;;;;;;;26.63;8.73;;;;;;;;;;5073677;28;20564;-53
2022/01/19 10:20:32;;;;;;;35.67;8.77;;;;;;;;;;5073083;28;20031;-53
2022/01/19 10:22:58;;;;;;;37.22;12.23;;;;;;;;;;5073174;28;20539;-55
2022/01/19 10:25:24;;;;;;;30.58;10.52;;;;;;;;;;5073161;28;20036;-54
2022/01/19 10:27:50;;;;;;;26.80;9.00;;;;;;;;;;5073180;28;20059;-55
2022/01/19 10:30:18;;;;;;;35.05;9.25;;;;;;;;;;5073095;28;20060;-55
2022/01/19 10:32:46;;;;;;;26.05;6.97;;;;;;;;;;5073013;28;20398;-53
2022/01/19 10:35:19;;;;;;;31.67;9.07;;;;;;;;;;5073047;28;20571;-56
2022/01/19 10:37:46;;;;;;;21.85;7.50;;;;;;;;;;5071645;28;20016;-55
2022/01/19 10:40:17;;;;;;;21.95;7.43;;;;;;;;;;5073147;28;20374;-54
2022/01/19 10:42:43;;;;;;;28.85;7.13;;;;;;;;;;5072908;28;20505;-56
2022/01/19 10:45:10;;;;;;;27.95;8.90;;;;;;;;;;5073075;28;20037;-55
2022/01/19 10:47:39;;;;;;;27.42;7.93;;;;;;;;;;5072942;28;20101;-55
2022/01/19 10:50:06;;;;;;;22.92;8.70;;;;;;;;;;5072872;28;20382;-54
2022/01/19 10:52:34;;;;;;;23.10;7.70;;;;;;;;;;5073152;28;20108;-53
2022/01/19 10:55:01;;;;;;;22.13;8.68;;;;;;;;;;5072744;28;20033;-55
2022/01/19 10:57:31;;;;;;;27.85;9.65;;;;;;;;;;5073031;28;20035;-54
2022/01/19 11:00:17;;;;;;;29.95;10.25;;;;;;;;;;5072795;28;20525;-54
2022/01/19 11:02:44;;;;;;;25.08;10.23;;;;;;;;;;5072697;28;20020;-54
2022/01/19 11:05:10;;;;;;;28.95;10.40;;;;;;;;;;5072896;28;20060;-53
2022/01/19 11:07:37;;;;;;;26.77;9.57;;;;;;;;;;5072840;28;20020;-53
2022/01/19 11:10:12;;;;;;;27.75;9.02;;;;;;;;;;5072794;28;20074;-53
2022/01/19 11:12:52;;;;;;;33.67;9.15;;;;;;;;;;5072753;28;20036;-54
2022/01/19 11:15:19;;;;;;;29.08;9.88;;;;;;;;;;5072527;28;20033;-54
2022/01/19 11:17:46;;;;;;;24.17;8.95;;;;;;;;;;5072674;28;20095;-54
2022/01/19 11:20:15;;;;;;;30.42;10.73;;;;;;;;;;5072853;28;20020;-54
2022/01/19 11:22:57;;;;;;;27.75;11.20;;;;;;;;;;5072547;28;20020;-55
2022/01/19 11:25:42;;;;;;;41.92;11.18;;;;;;;;;;5071091;28;20523;-53
2022/01/19 11:28:08;;;;;;;32.42;11.00;;;;;;;;;;5075626;28;20075;-54
2022/01/19 11:30:35;;;;;;;26.77;9.65;;;;;;;;;;5076228;28;20053;-53
2022/01/19 11:33:24;;;;;;;30.25;10.05;;;;;;;;;;5076092;28;20074;-54
2022/01/19 11:35:52;;;;;;;19.23;7.22;;;;;;;;;;5076023;28;20036;-54
2022/01/19 11:38:29;;;;;;;21.83;7.75;;;;;;;;;;5076063;28;20086;-55
2022/01/19 11:40:55;;;;;;;20.15;6.53;;;;;;;;;;5074931;28;20493;-57
2022/01/19 11:43:25;;;;;;;30.95;12.73;;;;;;;;;;5075893;28;20035;-58
2022/01/19 11:45:52;;;;;;;34.60;12.52;;;;;;;;;;5075797;28;20036;-57
2022/01/19 11:48:23;;;;;;;27.75;10.98;;;;;;;;;;5075938;28;20095;-56
2022/01/19 11:50:50;;;;;;;27.00;8.32;;;;;;;;;;5075766;28;20061;-57
2022/01/19 11:53:16;;;;;;;21.90;8.68;;;;;;;;;;5075690;28;20029;-58
2022/01/19 11:56:01;;;;;;;25.38;8.00;;;;;;;;;;5076011;28;20056;-54
2022/01/19 11:58:29;;;;;;;25.73;8.10;;;;;;;;;;5075684;28;20094;-56
2022/01/19 12:00:56;;;;;;;27.00;9.52;;;;;;;;;;5075707;28;20021;-52
2022/01/19 12:03:25;;;;;;;33.45;10.43;;;;;;;;;;5076058;28;20033;-53
2022/01/19 12:05:52;;;;;;;31.10;11.63;;;;;;;;;;5075413;28;20079;-54
2022/01/19 12:08:32;;;;;;;38.15;11.13;;;;;;;;;;5075743;28;20141;-55
2022/01/19 12:11:00;;;;;;;31.80;10.98;;;;;;;;;;5075374;28;20027;-59
2022/01/19 12:13:59;;;;;;;32.20;10.73;;;;;;;;;;5075385;28;20097;-58
2022/01/19 12:19:10;;;;;;;30.10;10.30;;;;;;;;;;5053259;28;20390;-61
2022/01/19 12:21:39;;;;;;;26.00;9.88;;;;;;;;;;5053160;28;20037;-59
2022/01/19 12:24:16;;;;;;;28.02;9.98;;;;;;;;;;5053197;28;20029;-57
2022/01/19 12:27:02;;;;;;;32.80;10.50;;;;;;;;;;5052748;28;20048;-54
2022/01/19 12:29:36;;;;;;;32.53;12.18;;;;;;;;;;5052916;28;20056;-58
2022/01/19 12:32:04;;;;;;;25.60;10.05;;;;;;;;;;5053086;28;20082;-55
2022/01/19 12:34:48;;;;;;;27.70;11.30;;;;;;;;;;5053054;28;20124;-55
2022/01/19 12:37:37;;;;;;;27.95;11.63;;;;;;;;;;5052420;28;20553;-55
2022/01/19 12:40:18;;;;;;;34.80;14.07;;;;;;;;;;5052992;28;20580;-63
2022/01/19 12:42:46;;;;;;;31.95;13.95;;;;;;;;;;5052660;28;20036;-57
2022/01/19 12:45:19;;;;;;;26.40;10.32;;;;;;;;;;5052487;28;20079;-55
2022/01/19 12:47:47;;;;;;;32.45;10.77;;;;;;;;;;5052666;28;20047;-53
2022/01/19 12:50:15;;;;;;;23.95;10.48;;;;;;;;;;5052588;28;20029;-56
2022/01/19 12:52:43;;;;;;;25.38;10.55;;;;;;;;;;5062485;28;20527;-57
2022/01/19 12:55:12;;;;;;;39.05;14.38;;;;;;;;;;5074596;28;20037;-54
2022/01/19 12:57:38;;;;;;;30.75;10.65;;;;;;;;;;5074372;28;20035;-54
2022/01/19 13:00:09;;;;;;;44.30;11.07;;;;;;;;;;5074275;28;20111;-52
2022/01/19 13:02:36;;;;;;;37.47;11.10;;;;;;;;;;5074348;28;20030;-53
2022/01/19 13:05:14;;;;;;;27.40;10.65;;;;;;;;;;5074214;28;20036;-54
2022/01/19 13:07:43;;;;;;;23.67;10.10;;;;;;;;;;5074368;28;20397;-54
2022/01/19 13:12:55;;;;;;;38.38;12.43;;;;;;;;;;5074218;28;20063;-53
2022/01/19 13:15:22;;;;;;;38.53;14.55;;;;;;;;;;5074696;28;20025;-55
2022/01/19 13:17:49;;;;;;;28.83;11.82;;;;;;;;;;5074115;28;20119;-58
2022/01/19 13:20:20;;;;;;;33.97;11.40;;;;;;;;;;5074090;28;20059;-54
2022/01/19 13:22:46;;;;;;;32.67;11.98;;;;;;;;;;5073965;28;20023;-56
2022/01/19 13:25:19;;;;;;;34.78;12.27;;;;;;;;;;5073969;28;20029;-55
2022/01/19 13:27:46;;;;;;;36.05;10.80;;;;;;;;;;5073887;28;20111;-54
2022/01/19 13:30:14;;;;;;;29.98;11.45;;;;;;;;;;5073839;28;20028;-54
2022/01/19 13:32:40;;;;;;;27.30;11.77;;;;;;;;;;5073850;28;20115;-54
2022/01/19 13:35:08;;;;;;;30.73;13.07;;;;;;;;;;5073950;28;20027;-55
2022/01/19 13:37:42;;;;;;;34.17;13.35;;;;;;;;;;5073926;28;20020;-59
2022/01/19 13:40:16;;;;;;;32.67;12.40;;;;;;;;;;5074177;28;20164;-55
2022/01/19 13:42:47;;;;;;;29.52;11.57;;;;;;;;;;5073625;28;20044;-55
2022/01/19 13:45:27;;;;;;;41.95;15.00;;;;;;;;;;5073367;28;20085;-54
2022/01/19 13:48:28;;;;;;;38.05;17.55;;;;;;;;;;5073945;28;20032;-54
2022/01/19 13:50:48;;;;;;;37.92;17.45;;;;;;;;;;5072714;28;20495;-56
2022/01/19 13:53:15;;;;;;;43.60;19.40;;;;;;;;;;5073512;28;20021;-55
2022/01/19 13:55:42;;;;;;;53.70;24.80;;;;;;;;;;5085290;28;20374;-54
2022/01/19 13:58:09;;;;;;;42.70;19.17;;;;;;;;;;5093649;28;20032;-54
2022/01/19 14:00:36;;;;;;;37.88;17.60;;;;;;;;;;5093881;28;20162;-55
2022/01/19 14:03:06;;;;;;;81.82;39.20;;;;;;;;;;5093793;28;20024;-56
2022/01/19 14:05:43;;;;;;;31.42;13.70;;;;;;;;;;5093518;28;20520;-55
2022/01/19 14:08:11;;;;;;;74.72;39.97;;;;;;;;;;5093550;28;20031;-55
2022/01/19 14:10:45;;;;;;;46.75;17.73;;;;;;;;;;5093464;28;20028;-56
2022/01/19 14:13:24;;;;;;;46.60;19.42;;;;;;;;;;5093593;28;20031;-54
2022/01/19 14:15:52;;;;;;;75.38;33.28;;;;;;;;;;5093395;28;20103;-55
2022/01/19 14:18:21;;;;;;;59.05;23.58;;;;;;;;;;5093214;28;20027;-54
2022/01/19 14:21:04;;;;;;;30.25;12.55;;;;;;;;;;5093544;28;20032;-54
2022/01/19 14:23:30;;;;;;;52.00;18.33;;;;;;;;;;5093519;28;20097;-55
2022/01/19 14:26:10;;;;;;;33.95;11.93;;;;;;;;;;5093168;28;20032;-54
2022/01/19 14:28:38;;;;;;;56.00;24.55;;;;;;;;;;5093170;28;20470;-55
2022/01/19 14:31:12;;;;;;;82.53;37.58;;;;;;;;;;5093363;28;20024;-55
2022/01/19 14:33:50;;;;;;;62.13;27.83;;;;;;;;;;5093428;28;20048;-55
2022/01/19 14:36:23;;;;;;;43.53;19.98;;;;;;;;;;5093507;28;20024;-55
2022/01/19 14:38:55;;;;;;;48.83;21.60;;;;;;;;;;5093250;28;20028;-55
2022/01/19 14:41:28;;;;;;;58.20;25.65;;;;;;;;;;5093108;28;20020;-55
2022/01/19 14:44:40;;;;;;;62.85;27.40;;;;;;;;;;5093401;28;20085;-55
2022/01/19 14:47:06;;;;;;;67.82;28.70;;;;;;;;;;5091065;28;20370;-55
2022/01/19 14:49:35;;;;;;;60.35;26.35;;;;;;;;;;5093722;28;20032;-55
2022/01/19 14:52:04;;;;;;;79.78;35.15;;;;;;;;;;5093162;28;20393;-55
2022/01/19 14:54:30;;;;;;;67.03;34.42;;;;;;;;;;5093119;28;20485;-56
2022/01/19 14:56:56;;;;;;;78.53;38.00;;;;;;;;;;5092925;28;20070;-53
2022/01/19 14:59:25;;;;;;;88.95;42.10;;;;;;;;;;5093116;28;20420;-55
2022/01/19 15:01:57;;;;;;;91.20;39.33;;;;;;;;;;5096399;28;20028;-54
2022/01/19 15:04:23;;;;;;;80.28;37.78;;;;;;;;;;5097365;28;20092;-55
2022/01/19 15:06:49;;;;;;;79.05;37.90;;;;;;;;;;5096957;28;20039;-55
2022/01/19 15:09:16;;;;;;;120.40;57.90;;;;;;;;;;5097091;28;20020;-54
2022/01/19 15:11:42;;;;;;;137.23;61.28;;;;;;;;;;5097027;28;20031;-53
2022/01/19 15:14:09;;;;;;;134.75;62.45;;;;;;;;;;5096602;28;20020;-56
2022/01/19 15:16:35;;;;;;;96.43;40.25;;;;;;;;;;5096773;28;20095;-56
2022/01/19 15:19:02;;;;;;;117.82;50.78;;;;;;;;;;5096431;28;20023;-56
2022/01/19 15:21:28;;;;;;;76.90;35.15;;;;;;;;;;5096582;28;20032;-56
2022/01/19 15:23:54;;;;;;;95.05;41.50;;;;;;;;;;5096157;28;20098;-55
2022/01/19 15:26:20;;;;;;;79.22;34.58;;;;;;;;;;5095906;28;20595;-55
2022/01/19 15:28:50;;;;;;;139.15;60.13;;;;;;;;;;5095812;28;20044;-56
2022/01/19 15:31:16;;;;;;;120.55;51.80;;;;;;;;;;5094536;28;20402;-58
2022/01/19 15:33:45;;;;;;;140.75;63.88;;;;;;;;;;5095856;28;20016;-56
2022/01/19 15:36:11;;;;;;;181.70;88.07;;;;;;;;;;5095950;28;20016;-55
2022/01/19 15:38:39;;;;;;;179.77;80.22;;;;;;;;;;5095959;28;20103;-55
2022/01/19 15:41:06;;;;;;;149.65;62.80;;;;;;;;;;5095877;28;20024;-51
2022/01/19 15:43:32;;;;;;;154.05;67.38;;;;;;;;;;5095529;28;20047;-55
2022/01/19 15:45:58;;;;;;;299.67;125.07;;;;;;;;;;5095053;28;20032;-57
2022/01/19 15:48:25;;;;;;;222.32;92.53;;;;;;;;;;5077931;28;20445;-54
2022/01/19 15:50:53;;;;;;;241.93;96.55;;;;;;;;;;5066048;28;20509;-55
2022/01/19 15:53:22;;;;;;;186.55;78.07;;;;;;;;;;5064448;28;20048;-54
2022/01/19 15:55:49;;;;;;;281.17;126.25;;;;;;;;;;5065955;28;20093;-54
2022/01/19 15:58:16;;;;;;;169.00;78.25;;;;;;;;;;5064296;28;20127;-54
2022/01/19 16:00:42;;;;;;;190.73;94.65;;;;;;;;;;5064380;28;20562;-54
2022/01/19 16:03:09;;;;;;;99.78;51.17;;;;;;;;;;5064136;28;20554;-53
2022/01/19 16:05:36;;;;;;;119.70;60.45;;;;;;;;;;5064417;28;20036;-55